sensor_id;sensor_type;location;lat;lon;timestamp;temperature;humidity
19952;DHT22;10137;49.406;19.484;2023-07-13T00:00:46;19.10;99.90
19952;DHT22;10137;49.406;19.484;2023-07-13T00:03:13;19.00;99.90
19952;DHT22;10137;49.406;19.484;2023-07-13T00:05:40;19.10;99.90
19952;DHT22;10137;49.406;19.484;2023-07-13T00:08:07;19.10;99.90
19952;DHT22;10137;49.406;19.484;2023-07-13T00:10:39;19.10;99.90
19952;DHT22;10137;49.406;19.484;2023-07-13T00:13:09;19.10;99.90
19952;DHT22;10137;49.406;19.484;2023-07-13T00:15:36;19.10;99.90
19952;DHT22;10137;49.406;19.484;2023-07-13T00:18:03;19.10;99.90
19952;DHT22;10137;49.406;19.484;2023-07-13T00:20:30;19.10;99.90
19952;DHT22;10137;49.406;19.484;2023-07-13T00:22:57;19.00;99.90
19952;DHT22;10137;49.406;19.484;2023-07-13T00:25:24;19.10;99.90
19952;DHT22;10137;49.406;19.484;2023-07-13T00:27:53;19.10;99.90
19952;DHT22;10137;49.406;19.484;2023-07-13T00:30:22;19.10;99.90
19952;DHT22;10137;49.406;19.484;2023-07-13T00:32:49;19.10;99.90
19952;DHT22;10137;49.406;19.484;2023-07-13T00:35:16;19.10;99.90
19952;DHT22;10137;49.406;19.484;2023-07-13T00:37:43;18.90;99.90
19952;DHT22;10137;49.406;19.484;2023-07-13T00:40:12;18.80;99.90
19952;DHT22;10137;49.406;19.484;2023-07-13T00:42:40;18.70;99.90
19952;DHT22;10137;49.406;19.484;2023-07-13T00:48:17;18.90;99.90
19952;DHT22;10137;49.406;19.484;2023-07-13T00:50:48;18.90;99.90
19952;DHT22;10137;49.406;19.484;2023-07-13T00:53:16;18.80;99.90
19952;DHT22;10137;49.406;19.484;2023-07-13T00:55:44;18.80;99.90
19952;DHT22;10137;49.406;19.484;2023-07-13T00:58:11;18.80;99.90
19952;DHT22;10137;49.406;19.484;2023-07-13T01:00:39;18.80;99.90
19952;DHT22;10137;49.406;19.484;2023-07-13T01:03:06;18.70;99.90
19952;DHT22;10137;49.406;19.484;2023-07-13T01:05:35;18.70;99.90
19952;DHT22;10137;49.406;19.484;2023-07-13T01:08:03;18.60;99.90
19952;DHT22;10137;49.406;19.484;2023-07-13T01:10:31;18.60;99.90
19952;DHT22;10137;49.406;19.484;2023-07-13T01:13:05;18.70;99.90
19952;DHT22;10137;49.406;19.484;2023-07-13T01:15:37;18.70;99.90
19952;DHT22;10137;49.406;19.484;2023-07-13T01:18:05;18.80;99.90
19952;DHT22;10137;49.406;19.484;2023-07-13T01:20:35;18.70;99.90
19952;DHT22;10137;49.406;19.484;2023-07-13T01:23:07;18.70;99.90
19952;DHT22;10137;49.406;19.484;2023-07-13T01:25:34;18.70;99.90
19952;DHT22;10137;49.406;19.484;2023-07-13T01:28:02;18.70;99.90
19952;DHT22;10137;49.406;19.484;2023-07-13T01:30:29;18.70;99.90
19952;DHT22;10137;49.406;19.484;2023-07-13T01:32:56;18.70;99.90
19952;DHT22;10137;49.406;19.484;2023-07-13T01:35:23;18.60;99.90
19952;DHT22;10137;49.406;19.484;2023-07-13T01:37:51;18.60;99.90
19952;DHT22;10137;49.406;19.484;2023-07-13T01:40:19;18.50;99.90
19952;DHT22;10137;49.406;19.484;2023-07-13T01:42:46;18.50;99.90
19952;DHT22;10137;49.406;19.484;2023-07-13T01:45:13;18.50;99.90
19952;DHT22;10137;49.406;19.484;2023-07-13T01:47:40;18.60;99.90
19952;DHT22;10137;49.406;19.484;2023-07-13T01:50:08;18.60;99.90
19952;DHT22;10137;49.406;19.484;2023-07-13T01:52:35;18.70;99.90
19952;DHT22;10137;49.406;19.484;2023-07-13T01:55:03;18.70;99.90
19952;DHT22;10137;49.406;19.484;2023-07-13T01:57:31;18.70;99.90
19952;DHT22;10137;49.406;19.484;2023-07-13T01:59:58;18.70;99.90
19952;DHT22;10137;49.406;19.484;2023-07-13T02:02:25;18.70;99.90
19952;DHT22;10137;49.406;19.484;2023-07-13T02:04:52;18.70;99.90
19952;DHT22;10137;49.406;19.484;2023-07-13T02:07:19;18.70;99.90
19952;DHT22;10137;49.406;19.484;2023-07-13T02:09:46;18.70;99.90
19952;DHT22;10137;49.406;19.484;2023-07-13T02:12:13;18.60;99.90
19952;DHT22;10137;49.406;19.484;2023-07-13T02:14:42;18.70;99.90
19952;DHT22;10137;49.406;19.484;2023-07-13T02:17:09;18.70;99.90
19952;DHT22;10137;49.406;19.484;2023-07-13T02:19:36;18.70;99.90
19952;DHT22;10137;49.406;19.484;2023-07-13T02:22:04;18.70;99.90
19952;DHT22;10137;49.406;19.484;2023-07-13T02:24:31;18.60;99.90
19952;DHT22;10137;49.406;19.484;2023-07-13T02:26:58;18.60;99.90
19952;DHT22;10137;49.406;19.484;2023-07-13T02:29:25;18.60;99.90
19952;DHT22;10137;49.406;19.484;2023-07-13T02:31:53;18.50;99.90
19952;DHT22;10137;49.406;19.484;2023-07-13T02:34:20;18.50;99.90
19952;DHT22;10137;49.406;19.484;2023-07-13T02:36:47;18.50;99.90
19952;DHT22;10137;49.406;19.484;2023-07-13T02:39:14;18.50;99.90
19952;DHT22;10137;49.406;19.484;2023-07-13T02:41:41;18.50;99.90
19952;DHT22;10137;49.406;19.484;2023-07-13T02:44:08;18.50;99.90
19952;DHT22;10137;49.406;19.484;2023-07-13T02:46:36;18.60;99.90
19952;DHT22;10137;49.406;19.484;2023-07-13T02:49:05;18.50;99.90
19952;DHT22;10137;49.406;19.484;2023-07-13T02:51:32;18.60;99.90
19952;DHT22;10137;49.406;19.484;2023-07-13T02:53:59;18.50;99.90
19952;DHT22;10137;49.406;19.484;2023-07-13T02:56:28;18.50;99.90
19952;DHT22;10137;49.406;19.484;2023-07-13T02:58:56;18.50;99.90
19952;DHT22;10137;49.406;19.484;2023-07-13T03:01:23;18.50;99.90
19952;DHT22;10137;49.406;19.484;2023-07-13T03:03:51;18.50;99.90
19952;DHT22;10137;49.406;19.484;2023-07-13T03:06:20;18.50;99.90
19952;DHT22;10137;49.406;19.484;2023-07-13T03:08:48;18.50;99.90
19952;DHT22;10137;49.406;19.484;2023-07-13T03:11:17;18.40;99.90
19952;DHT22;10137;49.406;19.484;2023-07-13T03:13:45;18.40;99.90
19952;DHT22;10137;49.406;19.484;2023-07-13T03:16:12;18.50;99.90
19952;DHT22;10137;49.406;19.484;2023-07-13T03:18:41;18.40;99.90
19952;DHT22;10137;49.406;19.484;2023-07-13T03:21:08;18.50;99.90
19952;DHT22;10137;49.406;19.484;2023-07-13T03:23:37;18.50;99.90
19952;DHT22;10137;49.406;19.484;2023-07-13T03:26:06;18.40;99.90
19952;DHT22;10137;49.406;19.484;2023-07-13T03:28:33;18.50;99.90
19952;DHT22;10137;49.406;19.484;2023-07-13T03:31:01;18.50;99.90
19952;DHT22;10137;49.406;19.484;2023-07-13T03:33:29;18.50;99.90
19952;DHT22;10137;49.406;19.484;2023-07-13T03:35:57;18.50;99.90
19952;DHT22;10137;49.406;19.484;2023-07-13T03:38:24;18.50;99.90
19952;DHT22;10137;49.406;19.484;2023-07-13T03:40:53;18.50;99.90
19952;DHT22;10137;49.406;19.484;2023-07-13T03:43:20;18.40;99.90
19952;DHT22;10137;49.406;19.484;2023-07-13T03:45:47;18.40;99.90
19952;DHT22;10137;49.406;19.484;2023-07-13T03:48:14;18.40;99.90
19952;DHT22;10137;49.406;19.484;2023-07-13T03:50:41;18.40;99.90
19952;DHT22;10137;49.406;19.484;2023-07-13T03:53:08;18.40;99.90
19952;DHT22;10137;49.406;19.484;2023-07-13T03:55:35;18.40;99.90
19952;DHT22;10137;49.406;19.484;2023-07-13T03:58:25;18.30;99.90
19952;DHT22;10137;49.406;19.484;2023-07-13T04:00:53;18.40;99.90
19952;DHT22;10137;49.406;19.484;2023-07-13T04:03:20;18.50;99.90
19952;DHT22;10137;49.406;19.484;2023-07-13T04:05:47;18.50;99.90
19952;DHT22;10137;49.406;19.484;2023-07-13T04:08:14;18.50;99.90
19952;DHT22;10137;49.406;19.484;2023-07-13T04:10:41;18.50;99.90
19952;DHT22;10137;49.406;19.484;2023-07-13T04:13:08;18.50;99.90
19952;DHT22;10137;49.406;19.484;2023-07-13T04:15:38;18.50;99.90
19952;DHT22;10137;49.406;19.484;2023-07-13T04:18:05;18.50;99.90
19952;DHT22;10137;49.406;19.484;2023-07-13T04:20:32;18.50;99.90
19952;DHT22;10137;49.406;19.484;2023-07-13T04:22:59;18.50;99.90
19952;DHT22;10137;49.406;19.484;2023-07-13T04:25:26;18.50;99.90
19952;DHT22;10137;49.406;19.484;2023-07-13T04:27:53;18.50;99.90
19952;DHT22;10137;49.406;19.484;2023-07-13T04:30:21;18.70;99.90
19952;DHT22;10137;49.406;19.484;2023-07-13T04:32:50;18.70;99.90
19952;DHT22;10137;49.406;19.484;2023-07-13T04:35:17;18.80;99.90
19952;DHT22;10137;49.406;19.484;2023-07-13T04:37:46;18.90;99.90
19952;DHT22;10137;49.406;19.484;2023-07-13T04:40:14;18.90;99.90
19952;DHT22;10137;49.406;19.484;2023-07-13T04:42:41;19.00;99.90
19952;DHT22;10137;49.406;19.484;2023-07-13T04:45:08;19.00;99.90
19952;DHT22;10137;49.406;19.484;2023-07-13T04:47:35;19.10;99.90
19952;DHT22;10137;49.406;19.484;2023-07-13T04:50:05;19.10;99.90
19952;DHT22;10137;49.406;19.484;2023-07-13T04:52:32;19.20;99.90
19952;DHT22;10137;49.406;19.484;2023-07-13T04:54:59;19.20;99.90
19952;DHT22;10137;49.406;19.484;2023-07-13T04:57:26;19.40;99.90
19952;DHT22;10137;49.406;19.484;2023-07-13T04:59:53;19.40;99.90
19952;DHT22;10137;49.406;19.484;2023-07-13T05:02:21;19.40;99.90
19952;DHT22;10137;49.406;19.484;2023-07-13T05:04:48;19.50;99.90
19952;DHT22;10137;49.406;19.484;2023-07-13T05:07:16;19.60;99.90
19952;DHT22;10137;49.406;19.484;2023-07-13T05:09:43;19.70;99.90
19952;DHT22;10137;49.406;19.484;2023-07-13T05:12:11;19.70;99.90
19952;DHT22;10137;49.406;19.484;2023-07-13T05:14:37;19.80;99.90
19952;DHT22;10137;49.406;19.484;2023-07-13T05:17:04;19.80;99.90
19952;DHT22;10137;49.406;19.484;2023-07-13T05:19:31;19.90;99.90
19952;DHT22;10137;49.406;19.484;2023-07-13T05:21:58;20.00;99.90
19952;DHT22;10137;49.406;19.484;2023-07-13T05:24:27;19.90;99.90
19952;DHT22;10137;49.406;19.484;2023-07-13T05:26:54;20.00;99.90
19952;DHT22;10137;49.406;19.484;2023-07-13T05:29:21;20.10;99.90
19952;DHT22;10137;49.406;19.484;2023-07-13T05:31:48;20.10;99.90
19952;DHT22;10137;49.406;19.484;2023-07-13T05:34:15;20.20;99.90
19952;DHT22;10137;49.406;19.484;2023-07-13T05:36:42;20.20;99.90
19952;DHT22;10137;49.406;19.484;2023-07-13T05:39:10;20.30;99.90
19952;DHT22;10137;49.406;19.484;2023-07-13T05:41:38;20.30;99.90
19952;DHT22;10137;49.406;19.484;2023-07-13T05:44:05;20.40;99.90
19952;DHT22;10137;49.406;19.484;2023-07-13T05:46:32;20.40;99.90
19952;DHT22;10137;49.406;19.484;2023-07-13T05:48:59;20.60;99.90
19952;DHT22;10137;49.406;19.484;2023-07-13T05:51:26;20.80;99.90
19952;DHT22;10137;49.406;19.484;2023-07-13T05:53:54;20.90;99.90
19952;DHT22;10137;49.406;19.484;2023-07-13T05:56:22;21.00;99.90
19952;DHT22;10137;49.406;19.484;2023-07-13T05:58:53;21.10;99.90
19952;DHT22;10137;49.406;19.484;2023-07-13T06:01:21;21.30;99.90
19952;DHT22;10137;49.406;19.484;2023-07-13T06:03:50;21.20;99.90
19952;DHT22;10137;49.406;19.484;2023-07-13T06:06:18;21.30;99.90
19952;DHT22;10137;49.406;19.484;2023-07-13T06:08:47;21.40;99.90
19952;DHT22;10137;49.406;19.484;2023-07-13T06:11:16;21.40;99.90
19952;DHT22;10137;49.406;19.484;2023-07-13T06:13:44;21.40;99.90
19952;DHT22;10137;49.406;19.484;2023-07-13T06:16:14;21.40;99.90
19952;DHT22;10137;49.406;19.484;2023-07-13T06:18:43;21.50;99.90
19952;DHT22;10137;49.406;19.484;2023-07-13T06:21:13;21.50;99.90
19952;DHT22;10137;49.406;19.484;2023-07-13T06:23:46;21.60;99.90
19952;DHT22;10137;49.406;19.484;2023-07-13T06:26:16;21.60;99.90
19952;DHT22;10137;49.406;19.484;2023-07-13T06:28:44;21.60;99.90
19952;DHT22;10137;49.406;19.484;2023-07-13T06:31:14;21.70;99.90
19952;DHT22;10137;49.406;19.484;2023-07-13T06:33:42;21.80;99.90
19952;DHT22;10137;49.406;19.484;2023-07-13T06:36:09;21.70;99.90
19952;DHT22;10137;49.406;19.484;2023-07-13T06:38:37;21.70;99.90
19952;DHT22;10137;49.406;19.484;2023-07-13T06:41:05;21.70;99.90
19952;DHT22;10137;49.406;19.484;2023-07-13T06:43:32;21.60;99.90
19952;DHT22;10137;49.406;19.484;2023-07-13T06:45:59;21.70;99.90
19952;DHT22;10137;49.406;19.484;2023-07-13T06:48:28;21.70;99.90
19952;DHT22;10137;49.406;19.484;2023-07-13T06:50:55;21.70;99.90
19952;DHT22;10137;49.406;19.484;2023-07-13T06:53:22;21.70;99.90
19952;DHT22;10137;49.406;19.484;2023-07-13T06:55:49;21.80;99.90
19952;DHT22;10137;49.406;19.484;2023-07-13T06:58:18;21.90;99.90
19952;DHT22;10137;49.406;19.484;2023-07-13T07:00:45;22.00;99.90
19952;DHT22;10137;49.406;19.484;2023-07-13T07:03:12;22.00;99.90
19952;DHT22;10137;49.406;19.484;2023-07-13T07:05:41;22.10;99.90
19952;DHT22;10137;49.406;19.484;2023-07-13T07:08:08;22.10;99.90
19952;DHT22;10137;49.406;19.484;2023-07-13T07:10:35;22.10;99.90
19952;DHT22;10137;49.406;19.484;2023-07-13T07:13:03;22.10;99.90
19952;DHT22;10137;49.406;19.484;2023-07-13T07:15:30;22.10;99.90
19952;DHT22;10137;49.406;19.484;2023-07-13T07:17:57;22.10;99.90
19952;DHT22;10137;49.406;19.484;2023-07-13T07:20:25;22.20;99.90
19952;DHT22;10137;49.406;19.484;2023-07-13T07:22:55;22.30;99.90
19952;DHT22;10137;49.406;19.484;2023-07-13T07:25:21;22.40;99.90
19952;DHT22;10137;49.406;19.484;2023-07-13T07:27:48;22.40;99.90
19952;DHT22;10137;49.406;19.484;2023-07-13T07:30:15;22.40;99.90
19952;DHT22;10137;49.406;19.484;2023-07-13T07:32:42;22.40;99.90
19952;DHT22;10137;49.406;19.484;2023-07-13T07:35:09;22.40;99.90
19952;DHT22;10137;49.406;19.484;2023-07-13T07:37:36;22.40;99.90
19952;DHT22;10137;49.406;19.484;2023-07-13T07:40:06;22.40;99.90
19952;DHT22;10137;49.406;19.484;2023-07-13T07:42:34;22.30;99.90
19952;DHT22;10137;49.406;19.484;2023-07-13T07:45:01;22.30;99.90
19952;DHT22;10137;49.406;19.484;2023-07-13T07:47:28;22.30;99.90
19952;DHT22;10137;49.406;19.484;2023-07-13T07:49:55;22.30;99.90
19952;DHT22;10137;49.406;19.484;2023-07-13T07:52:22;22.10;99.90
19952;DHT22;10137;49.406;19.484;2023-07-13T07:54:49;22.10;99.90
19952;DHT22;10137;49.406;19.484;2023-07-13T07:57:17;22.10;99.90
19952;DHT22;10137;49.406;19.484;2023-07-13T07:59:44;22.10;99.90
19952;DHT22;10137;49.406;19.484;2023-07-13T08:02:11;22.00;99.90
19952;DHT22;10137;49.406;19.484;2023-07-13T08:04:38;22.00;99.90
19952;DHT22;10137;49.406;19.484;2023-07-13T08:07:05;21.90;99.90
19952;DHT22;10137;49.406;19.484;2023-07-13T08:09:33;21.90;99.90
19952;DHT22;10137;49.406;19.484;2023-07-13T08:12:00;21.90;99.90
19952;DHT22;10137;49.406;19.484;2023-07-13T08:14:28;21.90;99.90
19952;DHT22;10137;49.406;19.484;2023-07-13T08:16:55;21.80;99.90
19952;DHT22;10137;49.406;19.484;2023-07-13T08:19:22;21.80;99.90
19952;DHT22;10137;49.406;19.484;2023-07-13T08:21:49;21.80;99.90
19952;DHT22;10137;49.406;19.484;2023-07-13T08:24:16;21.70;99.90
19952;DHT22;10137;49.406;19.484;2023-07-13T08:26:44;21.60;99.90
19952;DHT22;10137;49.406;19.484;2023-07-13T08:29:12;21.60;99.90
19952;DHT22;10137;49.406;19.484;2023-07-13T08:31:40;21.60;99.90
19952;DHT22;10137;49.406;19.484;2023-07-13T08:34:07;21.60;99.90
19952;DHT22;10137;49.406;19.484;2023-07-13T08:36:34;21.50;99.90
19952;DHT22;10137;49.406;19.484;2023-07-13T08:39:02;21.60;99.90
19952;DHT22;10137;49.406;19.484;2023-07-13T08:41:29;21.60;99.90
19952;DHT22;10137;49.406;19.484;2023-07-13T08:43:59;21.50;99.90
19952;DHT22;10137;49.406;19.484;2023-07-13T08:46:33;21.40;99.90
19952;DHT22;10137;49.406;19.484;2023-07-13T08:49:07;21.30;99.90
19952;DHT22;10137;49.406;19.484;2023-07-13T08:51:42;21.20;99.90
19952;DHT22;10137;49.406;19.484;2023-07-13T08:54:20;21.20;99.90
19952;DHT22;10137;49.406;19.484;2023-07-13T08:56:50;21.10;99.90
19952;DHT22;10137;49.406;19.484;2023-07-13T08:59:21;21.10;99.90
19952;DHT22;10137;49.406;19.484;2023-07-13T09:02:15;21.00;99.90
19952;DHT22;10137;49.406;19.484;2023-07-13T09:04:48;21.00;99.90
19952;DHT22;10137;49.406;19.484;2023-07-13T09:07:21;20.90;99.90
19952;DHT22;10137;49.406;19.484;2023-07-13T09:09:58;20.80;99.90
19952;DHT22;10137;49.406;19.484;2023-07-13T09:12:31;20.70;99.90
19952;DHT22;10137;49.406;19.484;2023-07-13T09:15:04;20.60;99.90
19952;DHT22;10137;49.406;19.484;2023-07-13T09:17:35;20.60;99.90
19952;DHT22;10137;49.406;19.484;2023-07-13T09:20:10;20.50;99.90
19952;DHT22;10137;49.406;19.484;2023-07-13T09:22:40;20.50;99.90
19952;DHT22;10137;49.406;19.484;2023-07-13T09:25:21;20.40;99.90
19952;DHT22;10137;49.406;19.484;2023-07-13T09:27:54;20.30;99.90
19952;DHT22;10137;49.406;19.484;2023-07-13T09:30:27;20.20;99.90
19952;DHT22;10137;49.406;19.484;2023-07-13T09:32:57;20.10;99.90
19952;DHT22;10137;49.406;19.484;2023-07-13T09:35:27;20.10;99.90
19952;DHT22;10137;49.406;19.484;2023-07-13T09:37:58;20.10;99.90
19952;DHT22;10137;49.406;19.484;2023-07-13T09:40:35;20.10;99.90
19952;DHT22;10137;49.406;19.484;2023-07-13T09:43:04;20.10;99.90
19952;DHT22;10137;49.406;19.484;2023-07-13T09:45:33;20.20;99.90
19952;DHT22;10137;49.406;19.484;2023-07-13T09:48:05;20.20;99.90
19952;DHT22;10137;49.406;19.484;2023-07-13T09:50:33;20.20;99.90
19952;DHT22;10137;49.406;19.484;2023-07-13T09:53:01;20.20;99.90
19952;DHT22;10137;49.406;19.484;2023-07-13T09:55:32;20.20;99.90
19952;DHT22;10137;49.406;19.484;2023-07-13T09:58:04;20.30;99.90
19952;DHT22;10137;49.406;19.484;2023-07-13T10:00:32;20.30;99.90
19952;DHT22;10137;49.406;19.484;2023-07-13T10:03:02;20.40;99.90
19952;DHT22;10137;49.406;19.484;2023-07-13T10:05:40;20.40;99.90
19952;DHT22;10137;49.406;19.484;2023-07-13T10:08:19;20.40;99.90
19952;DHT22;10137;49.406;19.484;2023-07-13T10:10:52;20.40;99.90
19952;DHT22;10137;49.406;19.484;2023-07-13T10:13:27;20.40;99.90
19952;DHT22;10137;49.406;19.484;2023-07-13T10:15:55;20.50;99.90
19952;DHT22;10137;49.406;19.484;2023-07-13T10:18:24;20.40;99.90
19952;DHT22;10137;49.406;19.484;2023-07-13T10:21:00;20.50;99.90
19952;DHT22;10137;49.406;19.484;2023-07-13T10:23:35;20.50;99.90
19952;DHT22;10137;49.406;19.484;2023-07-13T10:26:03;20.50;99.90
19952;DHT22;10137;49.406;19.484;2023-07-13T10:28:34;20.40;99.90
19952;DHT22;10137;49.406;19.484;2023-07-13T10:31:06;20.40;99.90
19952;DHT22;10137;49.406;19.484;2023-07-13T10:33:37;20.40;99.90
19952;DHT22;10137;49.406;19.484;2023-07-13T10:36:14;20.40;99.90
19952;DHT22;10137;49.406;19.484;2023-07-13T10:38:43;20.50;99.90
19952;DHT22;10137;49.406;19.484;2023-07-13T10:41:15;20.50;99.90
19952;DHT22;10137;49.406;19.484;2023-07-13T10:43:46;20.50;99.90
19952;DHT22;10137;49.406;19.484;2023-07-13T10:46:18;20.50;99.90
19952;DHT22;10137;49.406;19.484;2023-07-13T10:48:48;20.50;99.90
19952;DHT22;10137;49.406;19.484;2023-07-13T10:51:18;20.50;99.90
19952;DHT22;10137;49.406;19.484;2023-07-13T10:53:48;20.50;99.90
19952;DHT22;10137;49.406;19.484;2023-07-13T10:56:35;20.50;99.90
19952;DHT22;10137;49.406;19.484;2023-07-13T10:59:12;20.40;99.90
19952;DHT22;10137;49.406;19.484;2023-07-13T11:01:51;20.40;99.90
19952;DHT22;10137;49.406;19.484;2023-07-13T11:04:20;20.30;99.90
19952;DHT22;10137;49.406;19.484;2023-07-13T11:06:52;20.30;99.90
19952;DHT22;10137;49.406;19.484;2023-07-13T11:09:37;20.20;99.90
19952;DHT22;10137;49.406;19.484;2023-07-13T11:12:25;20.20;99.90
19952;DHT22;10137;49.406;19.484;2023-07-13T11:15:05;20.20;99.90
19952;DHT22;10137;49.406;19.484;2023-07-13T11:17:47;20.10;99.90
19952;DHT22;10137;49.406;19.484;2023-07-13T11:20:39;20.10;99.90
19952;DHT22;10137;49.406;19.484;2023-07-13T11:23:30;20.10;99.90
19952;DHT22;10137;49.406;19.484;2023-07-13T11:25:58;20.00;99.90
19952;DHT22;10137;49.406;19.484;2023-07-13T11:28:29;19.80;99.90
19952;DHT22;10137;49.406;19.484;2023-07-13T11:31:02;19.70;99.90
19952;DHT22;10137;49.406;19.484;2023-07-13T11:33:50;19.70;99.90
19952;DHT22;10137;49.406;19.484;2023-07-13T11:36:19;19.70;99.90
19952;DHT22;10137;49.406;19.484;2023-07-13T11:38:57;19.50;99.90
19952;DHT22;10137;49.406;19.484;2023-07-13T11:41:27;19.50;99.90
19952;DHT22;10137;49.406;19.484;2023-07-13T11:44:05;19.40;99.90
19952;DHT22;10137;49.406;19.484;2023-07-13T11:46:32;19.40;99.90
19952;DHT22;10137;49.406;19.484;2023-07-13T11:48:59;19.30;99.90
19952;DHT22;10137;49.406;19.484;2023-07-13T11:51:29;19.30;99.90
19952;DHT22;10137;49.406;19.484;2023-07-13T11:54:03;19.20;99.90
19952;DHT22;10137;49.406;19.484;2023-07-13T11:56:30;19.20;99.90
19952;DHT22;10137;49.406;19.484;2023-07-13T11:59:04;19.20;99.90
19952;DHT22;10137;49.406;19.484;2023-07-13T12:01:32;19.10;99.90
19952;DHT22;10137;49.406;19.484;2023-07-13T12:04:01;19.10;99.90
19952;DHT22;10137;49.406;19.484;2023-07-13T12:06:30;19.10;99.90
19952;DHT22;10137;49.406;19.484;2023-07-13T12:09:00;19.10;99.90
19952;DHT22;10137;49.406;19.484;2023-07-13T12:11:29;19.00;99.90
19952;DHT22;10137;49.406;19.484;2023-07-13T12:13:56;19.00;99.90
19952;DHT22;10137;49.406;19.484;2023-07-13T12:16:28;19.00;99.90
19952;DHT22;10137;49.406;19.484;2023-07-13T12:18:56;19.10;99.90
19952;DHT22;10137;49.406;19.484;2023-07-13T12:21:29;19.10;99.90
19952;DHT22;10137;49.406;19.484;2023-07-13T12:23:56;19.10;99.90
19952;DHT22;10137;49.406;19.484;2023-07-13T12:26:24;19.10;99.90
19952;DHT22;10137;49.406;19.484;2023-07-13T12:28:53;19.10;99.90
19952;DHT22;10137;49.406;19.484;2023-07-13T12:31:31;19.00;99.90
19952;DHT22;10137;49.406;19.484;2023-07-13T12:34:03;19.10;99.90
19952;DHT22;10137;49.406;19.484;2023-07-13T12:36:33;19.20;99.90
19952;DHT22;10137;49.406;19.484;2023-07-13T12:39:06;19.30;99.90
19952;DHT22;10137;49.406;19.484;2023-07-13T12:41:39;19.30;99.90
19952;DHT22;10137;49.406;19.484;2023-07-13T12:44:11;19.30;99.90
19952;DHT22;10137;49.406;19.484;2023-07-13T12:46:39;19.40;99.90
19952;DHT22;10137;49.406;19.484;2023-07-13T12:49:07;19.40;99.90
19952;DHT22;10137;49.406;19.484;2023-07-13T12:51:35;19.50;99.90
19952;DHT22;10137;49.406;19.484;2023-07-13T12:54:13;19.50;99.90
19952;DHT22;10137;49.406;19.484;2023-07-13T12:56:43;19.50;99.90
19952;DHT22;10137;49.406;19.484;2023-07-13T12:59:17;19.60;99.90
19952;DHT22;10137;49.406;19.484;2023-07-13T13:01:46;19.70;99.90
19952;DHT22;10137;49.406;19.484;2023-07-13T13:04:15;19.70;99.90
19952;DHT22;10137;49.406;19.484;2023-07-13T13:06:46;19.80;99.90
19952;DHT22;10137;49.406;19.484;2023-07-13T13:09:16;19.80;99.90
19952;DHT22;10137;49.406;19.484;2023-07-13T13:11:47;19.80;99.90
19952;DHT22;10137;49.406;19.484;2023-07-13T13:14:13;19.90;99.90
19952;DHT22;10137;49.406;19.484;2023-07-13T13:16:46;19.90;99.90
19952;DHT22;10137;49.406;19.484;2023-07-13T13:19:16;20.00;99.90
19952;DHT22;10137;49.406;19.484;2023-07-13T13:21:45;20.10;99.90
19952;DHT22;10137;49.406;19.484;2023-07-13T13:24:13;20.20;99.90
19952;DHT22;10137;49.406;19.484;2023-07-13T13:26:41;20.30;99.90
19952;DHT22;10137;49.406;19.484;2023-07-13T13:29:14;20.30;99.90
19952;DHT22;10137;49.406;19.484;2023-07-13T13:31:42;20.30;99.90
19952;DHT22;10137;49.406;19.484;2023-07-13T13:34:11;20.40;99.90
19952;DHT22;10137;49.406;19.484;2023-07-13T13:36:39;20.40;99.90
19952;DHT22;10137;49.406;19.484;2023-07-13T13:39:18;20.40;99.90
19952;DHT22;10137;49.406;19.484;2023-07-13T13:41:47;20.40;99.90
19952;DHT22;10137;49.406;19.484;2023-07-13T13:44:17;20.40;99.90
19952;DHT22;10137;49.406;19.484;2023-07-13T13:46:45;20.50;99.90
19952;DHT22;10137;49.406;19.484;2023-07-13T13:49:15;20.40;99.90
19952;DHT22;10137;49.406;19.484;2023-07-13T13:51:43;20.40;99.90
19952;DHT22;10137;49.406;19.484;2023-07-13T13:54:12;20.40;99.90
19952;DHT22;10137;49.406;19.484;2023-07-13T13:56:42;20.40;99.90
19952;DHT22;10137;49.406;19.484;2023-07-13T13:59:09;20.30;99.90
19952;DHT22;10137;49.406;19.484;2023-07-13T14:01:38;20.30;99.90
19952;DHT22;10137;49.406;19.484;2023-07-13T14:04:06;20.30;99.90
19952;DHT22;10137;49.406;19.484;2023-07-13T14:06:34;20.20;99.90
19952;DHT22;10137;49.406;19.484;2023-07-13T14:09:01;20.20;99.90
19952;DHT22;10137;49.406;19.484;2023-07-13T14:11:30;20.30;99.90
19952;DHT22;10137;49.406;19.484;2023-07-13T14:13:59;20.20;99.90
19952;DHT22;10137;49.406;19.484;2023-07-13T14:16:28;20.20;99.90
19952;DHT22;10137;49.406;19.484;2023-07-13T14:18:58;20.20;99.90
19952;DHT22;10137;49.406;19.484;2023-07-13T14:21:27;20.20;99.90
19952;DHT22;10137;49.406;19.484;2023-07-13T14:23:54;20.20;99.90
19952;DHT22;10137;49.406;19.484;2023-07-13T14:26:23;20.20;99.90
19952;DHT22;10137;49.406;19.484;2023-07-13T14:28:52;20.20;99.90
19952;DHT22;10137;49.406;19.484;2023-07-13T14:31:19;20.20;99.90
19952;DHT22;10137;49.406;19.484;2023-07-13T14:33:46;20.30;99.90
19952;DHT22;10137;49.406;19.484;2023-07-13T14:36:24;20.30;99.90
19952;DHT22;10137;49.406;19.484;2023-07-13T14:38:52;20.30;99.90
19952;DHT22;10137;49.406;19.484;2023-07-13T14:41:19;20.40;99.90
19952;DHT22;10137;49.406;19.484;2023-07-13T14:43:46;20.40;99.90
19952;DHT22;10137;49.406;19.484;2023-07-13T14:46:22;20.40;99.90
19952;DHT22;10137;49.406;19.484;2023-07-13T14:48:51;20.40;99.90
19952;DHT22;10137;49.406;19.484;2023-07-13T14:51:19;20.40;99.90
19952;DHT22;10137;49.406;19.484;2023-07-13T14:53:46;20.40;99.90
19952;DHT22;10137;49.406;19.484;2023-07-13T14:56:13;20.40;99.90
19952;DHT22;10137;49.406;19.484;2023-07-13T14:58:42;20.30;99.90
19952;DHT22;10137;49.406;19.484;2023-07-13T15:01:12;20.40;99.90
19952;DHT22;10137;49.406;19.484;2023-07-13T15:03:43;20.40;99.90
19952;DHT22;10137;49.406;19.484;2023-07-13T15:06:12;20.40;99.90
19952;DHT22;10137;49.406;19.484;2023-07-13T15:08:41;20.40;99.90
19952;DHT22;10137;49.406;19.484;2023-07-13T15:11:08;20.40;99.90
19952;DHT22;10137;49.406;19.484;2023-07-13T15:13:37;20.40;99.90
19952;DHT22;10137;49.406;19.484;2023-07-13T15:16:08;20.40;99.90
19952;DHT22;10137;49.406;19.484;2023-07-13T15:18:37;20.40;99.90
19952;DHT22;10137;49.406;19.484;2023-07-13T15:21:08;20.40;99.90
19952;DHT22;10137;49.406;19.484;2023-07-13T15:23:40;20.40;99.90
19952;DHT22;10137;49.406;19.484;2023-07-13T15:26:11;20.40;99.90
19952;DHT22;10137;49.406;19.484;2023-07-13T15:28:39;20.30;99.90
19952;DHT22;10137;49.406;19.484;2023-07-13T15:31:21;20.30;99.90